createdAt,value
2018-09-14T00:01:03.757Z,98630.11
2018-09-14T00:03:32.591Z,98626.97
2018-09-14T00:06:01.434Z,98626.64
2018-09-14T00:08:30.184Z,98623.93
2018-09-14T00:10:59.006Z,98629.70
2018-09-14T00:13:27.937Z,98628.36
2018-09-14T00:15:56.803Z,98635.79
2018-09-14T00:18:25.561Z,98632.34
2018-09-14T00:20:54.808Z,98628.70
2018-09-14T00:23:23.747Z,98636.16
2018-09-14T00:25:52.602Z,98632.93
2018-09-14T00:28:21.508Z,98627.25
2018-09-14T00:30:50.599Z,98627.53
2018-09-14T00:33:19.589Z,98628.20
2018-09-14T00:35:48.589Z,98630.63
2018-09-14T00:38:17.369Z,98623.91
2018-09-14T00:40:46.400Z,98624.53
2018-09-14T00:43:15.314Z,98626.12
2018-09-14T00:45:44.016Z,98626.34
2018-09-14T00:48:13.143Z,98624.97
2018-09-14T00:50:41.774Z,98621.25
2018-09-14T00:53:10.653Z,98620.17
2018-09-14T00:55:40.025Z,98620.80
2018-09-14T00:58:08.936Z,98614.37
2018-09-14T01:00:37.929Z,98614.78
2018-09-14T01:03:06.672Z,98618.44
2018-09-14T01:05:35.531Z,98619.70
2018-09-14T01:08:04.656Z,98615.69
2018-09-14T01:10:33.543Z,98623.95
2018-09-14T01:15:53.033Z,98622.20
2018-09-14T01:18:22.715Z,98617.84
2018-09-14T01:20:51.494Z,98622.27
2018-09-14T01:23:20.376Z,98621.23
2018-09-14T01:25:49.423Z,98625.74
2018-09-14T01:28:18.201Z,98620.27
2018-09-14T01:30:47.962Z,98619.92
2018-09-14T01:33:16.824Z,98616.17
2018-09-14T01:35:50.633Z,98616.19
2018-09-14T01:38:19.500Z,98615.20
2018-09-14T01:40:49.275Z,98613.19
2018-09-14T01:43:18.039Z,98613.34
2018-09-14T01:45:46.822Z,98611.55
2018-09-14T01:48:15.724Z,98612.55
2018-09-14T01:50:44.530Z,98611.39
2018-09-14T01:53:13.298Z,98603.14
2018-09-14T01:55:42.229Z,98604.14
2018-09-14T01:58:10.974Z,98604.88
2018-09-14T02:00:39.919Z,98605.25
2018-09-14T02:03:09.785Z,98607.38
2018-09-14T02:05:38.717Z,98606.56
2018-09-14T02:08:07.570Z,98603.69
2018-09-14T02:10:36.970Z,98605.18
2018-09-14T02:13:05.825Z,98600.72
2018-09-14T02:15:34.934Z,98593.70
2018-09-14T02:18:03.900Z,98587.02
2018-09-14T02:20:32.827Z,98585.57
2018-09-14T02:23:01.737Z,98583.23
2018-09-14T02:25:31.221Z,98583.97
2018-09-14T02:28:00.095Z,98588.30
2018-09-14T02:30:29.097Z,98591.77
2018-09-14T02:32:57.839Z,98588.09
2018-09-14T02:35:26.761Z,98587.31
2018-09-14T02:37:55.803Z,98581.33
2018-09-14T02:40:25.430Z,98583.82
2018-09-14T02:42:54.373Z,98585.98
2018-09-14T02:45:23.384Z,98583.19
2018-09-14T02:47:52.842Z,98582.75
2018-09-14T02:50:21.966Z,98587.50
2018-09-14T02:52:50.842Z,98589.22
2018-09-14T02:55:19.886Z,98586.14
2018-09-14T02:57:48.555Z,98585.22
2018-09-14T03:00:17.292Z,98592.11
2018-09-14T03:02:46.117Z,98585.30
2018-09-14T03:05:15.036Z,98577.25
2018-09-14T03:07:44.415Z,98581.75
2018-09-14T03:10:13.095Z,98584.23
2018-09-14T03:12:42.023Z,98585.35
2018-09-14T03:15:10.793Z,98584.82
2018-09-14T03:17:40.294Z,98584.67
2018-09-14T03:20:09.190Z,98581.44
2018-09-14T03:22:38.532Z,98585.72
2018-09-14T03:25:07.537Z,98580.41
2018-09-14T03:27:36.508Z,98584.80
2018-09-14T03:30:05.556Z,98581.19
2018-09-14T03:32:34.640Z,98584.21
2018-09-14T03:35:03.911Z,98583.02
2018-09-14T03:37:32.875Z,98578.38
2018-09-14T03:40:02.647Z,98581.48
2018-09-14T03:42:31.513Z,98584.50
2018-09-14T03:45:00.451Z,98583.89
2018-09-14T03:47:29.494Z,98581.45
2018-09-14T03:49:58.354Z,98578.70
2018-09-14T03:52:27.364Z,98583.38
2018-09-14T03:54:56.316Z,98590.36
2018-09-14T03:57:25.304Z,98586.09
2018-09-14T03:59:54.264Z,98587.34
2018-09-14T04:02:23.307Z,98583.83
2018-09-14T04:04:52.103Z,98579.67
2018-09-14T04:07:21.723Z,98587.97
2018-09-14T04:09:50.690Z,98585.39
2018-09-14T04:12:19.545Z,98581.75
2018-09-14T04:14:48.943Z,98584.42
2018-09-14T04:17:17.841Z,98583.75
2018-09-14T04:19:46.608Z,98584.94
2018-09-14T04:22:15.527Z,98584.05
2018-09-14T04:24:44.180Z,98586.27
2018-09-14T04:27:12.983Z,98580.37
2018-09-14T04:29:41.929Z,98584.94
2018-09-14T04:32:10.866Z,98588.80
2018-09-14T04:34:39.604Z,98586.34
2018-09-14T04:37:08.664Z,98586.61
2018-09-14T04:39:37.439Z,98585.28
2018-09-14T04:42:06.482Z,98590.14
2018-09-14T04:44:41.554Z,98591.55
2018-09-14T04:47:10.335Z,98591.55
2018-09-14T04:49:39.350Z,98594.56
2018-09-14T04:52:08.449Z,98596.05
2018-09-14T04:54:37.393Z,98594.65
2018-09-14T04:57:06.531Z,98595.44
2018-09-14T04:59:35.856Z,98592.62
2018-09-14T05:02:04.802Z,98595.44
2018-09-14T05:04:33.745Z,98605.31
2018-09-14T05:07:02.608Z,98605.86
2018-09-14T05:09:31.656Z,98605.52
2018-09-14T05:12:01.197Z,98609.29
2018-09-14T05:14:30.173Z,98613.68
2018-09-14T05:17:03.720Z,98615.23
2018-09-14T05:19:32.725Z,98624.33
2018-09-14T05:22:01.408Z,98615.51
2018-09-14T05:24:30.304Z,98615.11
2018-09-14T05:26:59.222Z,98615.02
2018-09-14T05:29:28.610Z,98618.89
2018-09-14T05:31:57.491Z,98623.84
2018-09-14T05:34:26.349Z,98626.65
2018-09-14T05:36:55.310Z,98629.58
2018-09-14T05:39:25.574Z,98630.23
2018-09-14T05:41:55.805Z,98629.02
2018-09-14T05:44:24.522Z,98633.05
2018-09-14T05:46:53.481Z,98628.23
2018-09-14T05:49:22.379Z,98637.06
2018-09-14T05:51:51.627Z,98639.80
2018-09-14T05:54:20.592Z,98633.76
2018-09-14T05:56:49.489Z,98643.33
2018-09-14T05:59:18.321Z,98644.41
2018-09-14T06:01:47.323Z,98641.16
2018-09-14T06:04:16.131Z,98644.98
2018-09-14T06:06:45.113Z,98646.86
2018-09-14T06:09:14.423Z,98648.30
2018-09-14T06:11:43.794Z,98647.59
2018-09-14T06:14:12.987Z,98651.83
2018-09-14T06:16:41.783Z,98658.38
2018-09-14T06:19:10.678Z,98654.13
2018-09-14T06:21:39.698Z,98652.84
2018-09-14T06:24:08.642Z,98660.83
2018-09-14T06:26:37.499Z,98663.81
2018-09-14T06:29:06.918Z,98670.08
2018-09-14T06:31:35.759Z,98666.31
2018-09-14T06:34:05.303Z,98669.34
2018-09-14T06:36:34.518Z,98663.17
2018-09-14T06:39:03.668Z,98664.06
2018-09-14T06:41:32.618Z,98669.16
2018-09-14T06:44:01.570Z,98665.52
2018-09-14T06:46:30.306Z,98666.69
2018-09-14T06:48:59.438Z,98666.20
2018-09-14T06:51:28.334Z,98661.44
2018-09-14T06:53:57.300Z,98657.95
2018-09-14T06:56:26.207Z,98651.51
2018-09-14T06:58:55.526Z,98646.16
2018-09-14T07:01:24.524Z,98644.41
2018-09-14T07:03:53.942Z,98646.48
2018-09-14T07:06:22.875Z,98650.48
2018-09-14T07:08:52.456Z,98652.62
2018-09-14T07:11:21.606Z,98649.41
2018-09-14T07:13:50.665Z,98650.42
2018-09-14T07:16:19.963Z,98658.58
2018-09-14T07:18:49.015Z,98657.70
2018-09-14T07:21:17.950Z,98664.42
2018-09-14T07:23:46.962Z,98668.92
2018-09-14T07:26:15.900Z,98671.27
2018-09-14T07:28:44.781Z,98671.42
2018-09-14T07:31:13.718Z,98681.05
2018-09-14T07:33:42.885Z,98678.83
2018-09-14T07:36:11.892Z,98684.98
2018-09-14T07:38:40.837Z,98684.55
2018-09-14T07:41:09.842Z,98680.56
2018-09-14T07:43:38.750Z,98683.60
2018-09-14T07:46:07.751Z,98685.25
2018-09-14T07:48:36.735Z,98692.42
2018-09-14T07:51:05.714Z,98684.72
2018-09-14T07:53:34.634Z,98692.05
2018-09-14T07:56:03.590Z,98700.95
2018-09-14T07:58:32.563Z,98694.05
2018-09-14T08:01:01.707Z,98694.34
2018-09-14T08:03:30.689Z,98702.94
2018-09-14T08:06:00.015Z,98703.69
2018-09-14T08:08:28.973Z,98696.48
2018-09-14T08:10:58.017Z,98695.70
2018-09-14T08:13:27.070Z,98699.91
2018-09-14T08:15:56.028Z,98702.80
2018-09-14T08:18:25.169Z,98700.39
2018-09-14T08:20:54.117Z,98700.57
2018-09-14T08:23:24.186Z,98700.69
2018-09-14T08:25:53.072Z,98702.61
2018-09-14T08:28:22.078Z,98709.04
2018-09-14T08:30:51.415Z,98710.23
2018-09-14T08:33:20.285Z,98705.91
2018-09-14T08:35:49.090Z,98716.96
2018-09-14T08:38:18.072Z,98718.14
2018-09-14T08:40:47.116Z,98720.05
2018-09-14T08:43:15.990Z,98724.19
2018-09-14T08:45:44.784Z,98724.05
2018-09-14T08:48:14.226Z,98722.61
2018-09-14T08:50:43.195Z,98722.94
2018-09-14T08:53:12.038Z,98726.17
2018-09-14T08:55:40.951Z,98727.58
2018-09-14T08:58:09.948Z,98727.97
2018-09-14T09:00:38.830Z,98736.31
2018-09-14T09:03:07.843Z,98737.66
2018-09-14T09:05:37.577Z,98737.77
2018-09-14T09:08:06.703Z,98736.61
2018-09-14T09:10:35.938Z,98736.56
2018-09-14T09:13:04.939Z,98739.14
2018-09-14T09:15:33.835Z,98740.36
2018-09-14T09:18:02.719Z,98741.04
2018-09-14T09:20:31.724Z,98738.41
2018-09-14T09:23:00.958Z,98740.50
2018-09-14T09:25:29.947Z,98743.97
2018-09-14T09:27:58.650Z,98736.03
2018-09-14T09:30:27.572Z,98733.94
2018-09-14T09:32:56.468Z,98736.19
2018-09-14T09:35:25.303Z,98736.56
2018-09-14T09:37:54.229Z,98738.26
2018-09-14T09:40:23.259Z,98737.58
2018-09-14T09:42:52.049Z,98739.79
2018-09-14T09:45:20.962Z,98744.76
2018-09-14T09:47:49.797Z,98738.53
2018-09-14T09:50:18.738Z,98736.68
2018-09-14T09:52:47.523Z,98751.27
2018-09-14T09:55:16.411Z,98741.83
2018-09-14T09:57:45.421Z,98738.93
2018-09-14T10:00:19.524Z,98740.66
2018-09-14T10:03:52.316Z,98735.31
2018-09-14T10:06:24.017Z,98731.66
2018-09-14T10:08:54.048Z,98736.20
2018-09-14T10:11:23.045Z,98735.71
2018-09-14T10:13:52.896Z,98733.70
2018-09-14T10:16:21.781Z,98728.03
2018-09-14T10:18:50.663Z,98727.86
2018-09-14T10:21:19.488Z,98730.70
2018-09-14T10:23:48.557Z,98733.14
2018-09-14T10:26:17.531Z,98727.61
2018-09-14T10:28:46.581Z,98727.77
2018-09-14T10:31:15.489Z,98727.83
2018-09-14T10:33:44.493Z,98726.55
2018-09-14T10:36:13.469Z,98728.05
2018-09-14T10:38:42.928Z,98727.91
2018-09-14T10:41:12.975Z,98719.41
2018-09-14T10:43:42.016Z,98722.27
2018-09-14T10:46:10.777Z,98720.52
2018-09-14T10:48:39.627Z,98717.33
2018-09-14T10:51:08.394Z,98714.78
2018-09-14T10:53:37.314Z,98711.59
2018-09-14T10:56:06.720Z,98711.42
2018-09-14T10:58:41.035Z,98714.31
2018-09-14T11:01:11.957Z,98715.92
2018-09-14T11:03:41.946Z,98713.63
2018-09-14T11:06:11.733Z,98714.91
2018-09-14T11:08:40.791Z,98705.03
2018-09-14T11:11:10.637Z,98704.69
2018-09-14T11:13:39.685Z,98707.34
2018-09-14T11:16:09.262Z,98712.12
2018-09-14T11:18:38.690Z,98709.72
2018-09-14T11:21:08.787Z,98712.91
2018-09-14T11:23:37.899Z,98712.09
2018-09-14T11:26:06.720Z,98703.57
2018-09-14T11:28:35.506Z,98703.82
2018-09-14T11:31:04.608Z,98695.98
2018-09-14T11:33:33.774Z,98699.15
2018-09-14T11:36:02.715Z,98697.78
2018-09-14T11:38:31.583Z,98696.44
2018-09-14T11:41:00.543Z,98694.27
2018-09-14T11:43:30.029Z,98686.89
2018-09-14T11:45:59.764Z,98687.05
2018-09-14T11:48:28.772Z,98681.68
2018-09-14T11:50:58.205Z,98682.13
2018-09-14T11:53:27.741Z,98682.20
2018-09-14T11:55:56.527Z,98679.94
2018-09-14T11:58:25.448Z,98678.93
2018-09-14T12:00:54.505Z,98679.80
2018-09-14T12:03:23.672Z,98673.78
2018-09-14T12:05:52.563Z,98672.81
2018-09-14T12:08:21.302Z,98667.77
2018-09-14T12:10:50.764Z,98674.70
2018-09-14T12:13:19.820Z,98670.09
2018-09-14T12:15:49.272Z,98670.70
2018-09-14T12:18:18.837Z,98663.52
2018-09-14T12:20:47.732Z,98665.94
2018-09-14T12:23:16.822Z,98667.80
2018-09-14T12:25:45.881Z,98663.03
2018-09-14T12:28:16.304Z,98658.81
2018-09-14T12:30:45.214Z,98665.34
2018-09-14T12:33:14.118Z,98658.87
2018-09-14T12:35:43.553Z,98655.98
2018-09-14T12:38:13.388Z,98651.84
2018-09-14T12:40:42.960Z,98653.33
2018-09-14T12:43:12.058Z,98651.54
2018-09-14T12:45:41.093Z,98647.27
2018-09-14T12:48:10.146Z,98650.91
2018-09-14T12:50:39.150Z,98657.03
2018-09-14T12:53:08.039Z,98652.70
2018-09-14T12:55:36.953Z,98640.45
2018-09-14T12:58:05.787Z,98640.80
2018-09-14T13:00:34.777Z,98643.27
2018-09-14T13:03:04.265Z,98641.52
2018-09-14T13:05:33.355Z,98642.77
2018-09-14T13:08:03.475Z,98643.51
2018-09-14T13:10:32.797Z,98647.31
2018-09-14T13:13:01.809Z,98646.60
2018-09-14T13:15:30.872Z,98640.65
2018-09-14T13:17:59.839Z,98641.88
2018-09-14T13:20:29.074Z,98632.27
2018-09-14T13:22:57.859Z,98630.48
2018-09-14T13:25:27.337Z,98633.11
2018-09-14T13:27:56.409Z,98627.73
2018-09-14T13:30:25.474Z,98629.23
2018-09-14T13:32:54.848Z,98621.16
2018-09-14T13:35:24.778Z,98619.23
2018-09-14T13:37:54.407Z,98622.81
2018-09-14T13:40:23.544Z,98617.98
2018-09-14T13:42:52.615Z,98610.66
2018-09-14T13:45:21.581Z,98608.77
2018-09-14T13:47:50.541Z,98610.44
2018-09-14T13:50:19.681Z,98609.09
2018-09-14T13:52:49.064Z,98607.30
2018-09-14T13:55:18.191Z,98605.68
2018-09-14T13:57:48.172Z,98599.59
2018-09-14T14:00:17.261Z,98602.66
2018-09-14T14:02:46.417Z,98602.72
2018-09-14T14:05:15.403Z,98600.52
2018-09-14T14:07:44.484Z,98601.85
2018-09-14T14:13:06.494Z,98604.83
2018-09-14T14:15:35.334Z,98603.55
2018-09-14T14:18:04.891Z,98597.86
2018-09-14T14:20:33.806Z,98609.23
2018-09-14T14:23:02.970Z,98594.81
2018-09-14T14:25:31.618Z,98590.07
2018-09-14T14:28:00.665Z,98581.80
2018-09-14T14:30:29.544Z,98584.70
2018-09-14T14:32:58.547Z,98582.91
2018-09-14T14:35:27.542Z,98582.05
2018-09-14T14:37:56.460Z,98575.57
2018-09-14T14:40:25.441Z,98579.50
2018-09-14T14:42:54.421Z,98577.58
2018-09-14T14:45:23.329Z,98582.42
2018-09-14T14:47:52.265Z,98583.75
2018-09-14T14:50:21.308Z,98584.41
2018-09-14T14:52:50.939Z,98587.05
2018-09-14T14:55:20.184Z,98586.70
2018-09-14T14:57:49.094Z,98582.38
2018-09-14T15:00:18.023Z,98574.16
2018-09-14T15:02:46.983Z,98578.30
2018-09-14T15:05:15.952Z,98568.05
2018-09-14T15:07:44.964Z,98569.03
2018-09-14T15:10:14.053Z,98566.43
2018-09-14T15:12:43.007Z,98571.31
2018-09-14T15:15:12.045Z,98569.70
2018-09-14T15:17:41.022Z,98576.22
2018-09-14T15:20:09.902Z,98577.67
2018-09-14T15:22:39.697Z,98568.58
2018-09-14T15:25:08.790Z,98570.85
2018-09-14T15:27:37.575Z,98573.27
2018-09-14T15:30:06.584Z,98572.41
2018-09-14T15:32:36.186Z,98574.57
2018-09-14T15:35:07.068Z,98575.41
2018-09-14T15:37:35.989Z,98576.56
2018-09-14T15:40:04.929Z,98578.04
2018-09-14T15:42:33.794Z,98576.31
2018-09-14T15:45:02.510Z,98575.09
2018-09-14T15:47:31.591Z,98575.19
2018-09-14T15:50:00.574Z,98575.86
2018-09-14T15:52:29.271Z,98570.82
2018-09-14T15:54:58.276Z,98573.42
2018-09-14T15:57:27.876Z,98573.00
2018-09-14T15:59:56.749Z,98568.64
2018-09-14T16:02:30.215Z,98570.05
2018-09-14T16:04:59.007Z,98572.87
2018-09-14T16:07:28.810Z,98577.11
2018-09-14T16:09:57.688Z,98582.92
2018-09-14T16:12:26.922Z,98579.43
2018-09-14T16:14:57.298Z,98582.41
2018-09-14T16:17:26.128Z,98582.66
2018-09-14T16:19:55.176Z,98586.99
2018-09-14T16:22:24.116Z,98587.31
2018-09-14T16:24:53.723Z,98585.50
2018-09-14T16:27:22.544Z,98589.99
2018-09-14T16:29:51.694Z,98587.20
2018-09-14T16:32:20.844Z,98578.13
2018-09-14T16:34:49.778Z,98581.13
2018-09-14T16:37:18.515Z,98584.00
2018-09-14T16:39:47.346Z,98591.39
2018-09-14T16:42:16.420Z,98595.02
2018-09-14T16:44:45.726Z,98591.13
2018-09-14T16:47:14.725Z,98596.39
2018-09-14T16:49:43.849Z,98598.16
2018-09-14T16:52:12.793Z,98599.95
2018-09-14T16:54:42.056Z,98594.11
2018-09-14T16:57:10.785Z,98590.69
2018-09-14T16:59:39.693Z,98587.66
2018-09-14T17:02:08.519Z,98580.80
2018-09-14T17:04:37.573Z,98581.48
2018-09-14T17:07:06.560Z,98579.58
2018-09-14T17:09:35.575Z,98578.56
2018-09-14T17:12:05.312Z,98577.91
2018-09-14T17:14:35.100Z,98585.98
2018-09-14T17:17:03.954Z,98574.84
2018-09-14T17:19:32.775Z,98586.61
2018-09-14T17:22:01.746Z,98589.55
2018-09-14T17:24:30.609Z,98595.32
2018-09-14T17:26:59.546Z,98603.01
2018-09-14T17:29:28.637Z,98598.62
2018-09-14T17:31:57.611Z,98609.27
2018-09-14T17:34:26.698Z,98613.13
2018-09-14T17:36:55.835Z,98602.25
2018-09-14T17:39:24.855Z,98612.44
2018-09-14T17:42:02.162Z,98610.25
2018-09-14T17:44:31.097Z,98604.98
2018-09-14T17:47:00.162Z,98601.52
2018-09-14T17:49:29.144Z,98609.59
2018-09-14T17:51:58.001Z,98611.59
2018-09-14T17:54:27.402Z,98620.15
2018-09-14T17:56:57.394Z,98621.39
2018-09-14T17:59:26.280Z,98622.63
2018-09-14T18:01:55.332Z,98634.08
2018-09-14T18:04:24.301Z,98628.86
2018-09-14T18:06:53.434Z,98629.10
2018-09-14T18:09:22.498Z,98639.03
2018-09-14T18:11:51.436Z,98639.20
2018-09-14T18:14:20.775Z,98636.87
2018-09-14T18:16:49.918Z,98647.23
2018-09-14T18:19:19.684Z,98644.16
2018-09-14T18:21:48.743Z,98651.77
2018-09-14T18:24:17.846Z,98643.29
2018-09-14T18:26:46.613Z,98659.44
2018-09-14T18:29:15.532Z,98661.56
2018-09-14T18:31:44.517Z,98661.16
2018-09-14T18:34:13.481Z,98658.00
2018-09-14T18:36:42.645Z,98657.24
2018-09-14T18:39:13.074Z,98661.05
2018-09-14T18:41:42.192Z,98656.23
2018-09-14T18:44:11.484Z,98661.59
2018-09-14T18:46:40.548Z,98659.77
2018-09-14T18:49:09.842Z,98667.07
2018-09-14T18:51:38.866Z,98667.27
2018-09-14T18:54:07.958Z,98666.22
2018-09-14T18:56:37.122Z,98669.13
2018-09-14T18:59:06.322Z,98662.48
2018-09-14T19:01:35.704Z,98672.19
2018-09-14T19:04:04.810Z,98678.28
2018-09-14T19:06:33.783Z,98678.28
2018-09-14T19:09:02.624Z,98673.33
2018-09-14T19:11:31.760Z,98670.28
2018-09-14T19:14:00.697Z,98679.52
2018-09-14T19:16:29.706Z,98681.87
2018-09-14T19:18:58.843Z,98686.92
2018-09-14T19:21:27.952Z,98687.03
2018-09-14T19:23:57.152Z,98686.56
2018-09-14T19:26:26.049Z,98689.25
2018-09-14T19:28:55.430Z,98688.08
2018-09-14T19:31:25.181Z,98696.20
2018-09-14T19:33:54.359Z,98701.16
2018-09-14T19:36:23.412Z,98694.01
2018-09-14T19:38:52.461Z,98696.39
2018-09-14T19:41:21.583Z,98699.34
2018-09-14T19:43:50.392Z,98685.08
2018-09-14T19:46:19.366Z,98692.09
2018-09-14T19:48:48.321Z,98691.15
2018-09-14T19:51:17.192Z,98692.14
2018-09-14T19:53:46.164Z,98691.59
2018-09-14T19:56:15.234Z,98692.06
2018-09-14T19:58:44.305Z,98693.08
2018-09-14T20:01:13.440Z,98684.95
2018-09-14T20:03:42.401Z,98687.91
2018-09-14T20:06:11.430Z,98695.48
2018-09-14T20:08:40.475Z,98695.41
2018-09-14T20:11:09.257Z,98681.94
2018-09-14T20:13:38.107Z,98685.47
2018-09-14T20:16:07.132Z,98691.15
2018-09-14T20:18:36.537Z,98686.14
2018-09-14T20:21:05.470Z,98689.91
2018-09-14T20:23:34.451Z,98690.10
2018-09-14T20:26:03.576Z,98691.58
2018-09-14T20:28:32.458Z,98696.33
2018-09-14T20:31:01.773Z,98697.16
2018-09-14T20:33:30.759Z,98697.11
2018-09-14T20:35:59.594Z,98680.30
2018-09-14T20:38:28.534Z,98690.02
2018-09-14T20:40:57.640Z,98687.88
2018-09-14T20:43:27.780Z,98690.84
2018-09-14T20:45:56.740Z,98691.73
2018-09-14T20:48:25.756Z,98683.67
2018-09-14T20:50:55.056Z,98685.59
2018-09-14T20:53:23.905Z,98687.83
2018-09-14T20:55:53.017Z,98683.23
2018-09-14T20:58:22.176Z,98682.54
2018-09-14T21:00:51.446Z,98685.06
2018-09-14T21:03:22.795Z,98682.55
2018-09-14T21:05:51.613Z,98691.48
2018-09-14T21:08:26.991Z,98685.25
2018-09-14T21:10:56.167Z,98681.77
2018-09-14T21:13:25.137Z,98684.16
2018-09-14T21:15:54.117Z,98684.16
2018-09-14T21:18:23.031Z,98687.58
2018-09-14T21:20:52.390Z,98686.38
2018-09-14T21:23:21.231Z,98691.67
2018-09-14T21:25:50.233Z,98686.16
2018-09-14T21:28:19.196Z,98678.58
2018-09-14T21:30:48.240Z,98683.56
2018-09-14T21:33:17.224Z,98687.70
2018-09-14T21:35:46.253Z,98691.03
2018-09-14T21:38:15.222Z,98685.13
2018-09-14T21:40:44.295Z,98697.79
2018-09-14T21:43:13.261Z,98693.12
2018-09-14T21:45:42.263Z,98696.72
2018-09-14T21:48:11.199Z,98699.08
2018-09-14T21:50:40.093Z,98693.41
2018-09-14T21:53:09.097Z,98700.16
2018-09-14T21:55:38.014Z,98698.59
2018-09-14T21:58:07.066Z,98703.09
2018-09-14T22:00:41.031Z,98710.98
2018-09-14T22:03:10.080Z,98713.37
2018-09-14T22:05:39.270Z,98717.86
2018-09-14T22:08:08.347Z,98720.41
2018-09-14T22:10:37.325Z,98712.84
2018-09-14T22:13:07.109Z,98705.71
2018-09-14T22:15:36.104Z,98704.00
2018-09-14T22:18:05.294Z,98706.30
2018-09-14T22:20:34.096Z,98707.11
2018-09-14T22:23:03.242Z,98717.23
2018-09-14T22:25:32.307Z,98717.20
2018-09-14T22:28:01.315Z,98709.20
2018-09-14T22:30:36.522Z,98714.48
2018-09-14T22:33:10.243Z,98708.95
2018-09-14T22:35:39.190Z,98709.05
2018-09-14T22:38:09.090Z,98713.70
2018-09-14T22:40:38.401Z,98715.22
2018-09-14T22:43:07.952Z,98721.69
2018-09-14T22:45:36.986Z,98727.90
2018-09-14T22:48:06.332Z,98733.91
2018-09-14T22:50:35.656Z,98729.84
2018-09-14T22:53:04.424Z,98736.31
2018-09-14T22:55:33.426Z,98740.98
2018-09-14T22:58:03.361Z,98740.25
2018-09-14T23:00:37.659Z,98748.88
2018-09-14T23:03:06.617Z,98746.84
2018-09-14T23:05:35.570Z,98751.61
2018-09-14T23:08:04.783Z,98751.92
2018-09-14T23:10:33.775Z,98747.27
2018-09-14T23:13:02.570Z,98741.31
2018-09-14T23:15:31.465Z,98750.70
2018-09-14T23:18:00.405Z,98746.69
2018-09-14T23:20:29.307Z,98751.77
2018-09-14T23:22:58.353Z,98745.92
2018-09-14T23:25:27.196Z,98745.50
2018-09-14T23:27:56.332Z,98742.97
2018-09-14T23:30:25.140Z,98745.44
2018-09-14T23:32:53.993Z,98744.42
2018-09-14T23:35:22.824Z,98746.98
2018-09-14T23:37:51.530Z,98743.02
2018-09-14T23:40:20.357Z,98740.72
2018-09-14T23:42:49.096Z,98738.69
2018-09-14T23:45:18.125Z,98748.17
2018-09-14T23:47:47.086Z,98746.14
2018-09-14T23:50:16.052Z,98740.71
2018-09-14T23:52:45.163Z,98762.57
2018-09-14T23:55:14.053Z,98757.40
2018-09-14T23:57:42.853Z,98756.48
